Time;durP1;ratioP1;P1;durP2;ratioP2;P2;SDS_P1;SDS_P2;PMS_P1;PMS_P2;Temp;Humidity;BMP_temperature;BMP_pressure;BME280_temperature;BME280_humidity;BME280_pressure;Samples;Min_cycle;Max_cycle;Signal;HPM_P1;HPM_P2
2021/10/30 00:01:50;;;;;;;11.77;6.90;;;11.40;99.90;;;;;;5033736;28;20030;-76
2021/10/30 00:04:16;;;;;;;9.80;7.63;;;11.30;99.90;;;;;;5033004;28;20029;-77
2021/10/30 00:06:41;;;;;;;8.90;7.72;;;11.30;99.90;;;;;;5033822;28;20032;-77
2021/10/30 00:09:07;;;;;;;9.88;7.22;;;11.30;99.90;;;;;;5033529;28;20029;-77
2021/10/30 00:11:32;;;;;;;10.57;7.15;;;11.20;99.90;;;;;;5033821;28;20079;-77
2021/10/30 00:13:58;;;;;;;9.02;7.43;;;11.20;99.90;;;;;;5034282;28;20033;-76
2021/10/30 00:16:24;;;;;;;7.80;7.00;;;11.20;99.90;;;;;;5032633;28;20033;-77
2021/10/30 00:18:49;;;;;;;8.80;7.88;;;11.10;99.90;;;;;;5034433;28;20021;-77
2021/10/30 00:21:15;;;;;;;12.55;7.57;;;11.10;99.90;;;;;;5032907;28;20037;-77
2021/10/30 00:23:40;;;;;;;8.77;7.53;;;11.10;99.90;;;;;;5034029;28;20160;-76
2021/10/30 00:26:07;;;;;;;8.35;7.55;;;11.10;99.90;;;;;;5033865;28;20036;-75
2021/10/30 00:28:32;;;;;;;8.65;7.72;;;11.10;99.90;;;;;;5032628;28;20366;-76
2021/10/30 00:30:58;;;;;;;10.95;8.27;;;11.10;99.90;;;;;;5034078;28;20029;-75
2021/10/30 00:33:23;;;;;;;8.45;7.60;;;11.30;99.90;;;;;;5033567;28;20116;-75
2021/10/30 00:35:49;;;;;;;9.25;7.68;;;11.30;99.90;;;;;;5032989;28;20061;-75
2021/10/30 00:38:14;;;;;;;8.75;7.63;;;11.30;99.90;;;;;;5035403;28;20025;-76
2021/10/30 00:40:40;;;;;;;9.02;8.23;;;11.40;99.90;;;;;;5034167;28;20033;-75
2021/10/30 00:43:05;;;;;;;9.13;8.23;;;11.40;99.90;;;;;;5034088;28;20096;-76
2021/10/30 00:45:31;;;;;;;7.97;7.28;;;11.50;99.90;;;;;;5032955;28;20032;-76
2021/10/30 00:47:57;;;;;;;8.70;7.70;;;11.50;99.90;;;;;;5034409;28;20029;-76
2021/10/30 00:50:23;;;;;;;10.18;7.97;;;11.60;99.90;;;;;;5032771;28;20492;-74
2021/10/30 00:52:52;;;;;;;9.48;8.05;;;11.70;99.90;;;;;;5033626;28;20603;-75
2021/10/30 00:55:21;;;;;;;10.48;8.32;;;11.70;99.90;;;;;;5033128;28;20041;-76
2021/10/30 00:57:47;;;;;;;9.00;8.10;;;11.80;99.90;;;;;;5033175;28;20022;-76
2021/10/30 01:00:13;;;;;;;9.82;8.82;;;11.80;99.90;;;;;;5033243;28;20058;-76
2021/10/30 01:02:39;;;;;;;9.15;7.60;;;11.80;99.90;;;;;;5032442;28;20535;-76
2021/10/30 01:05:05;;;;;;;7.63;7.03;;;11.80;99.90;;;;;;5032486;28;20032;-77
2021/10/30 01:07:32;;;;;;;9.40;7.50;;;11.80;99.90;;;;;;5032985;28;20500;-77
2021/10/30 01:10:01;;;;;;;8.00;7.22;;;11.90;99.90;;;;;;5033002;28;20025;-77
2021/10/30 01:12:27;;;;;;;9.95;7.20;;;11.90;99.90;;;;;;5032507;28;20462;-75
2021/10/30 01:14:53;;;;;;;8.52;7.32;;;12.00;99.90;;;;;;5032390;28;20045;-76
2021/10/30 01:17:19;;;;;;;8.68;7.72;;;12.00;99.90;;;;;;5032963;28;20528;-77
2021/10/30 01:19:44;;;;;;;8.23;7.30;;;12.00;99.90;;;;;;5032585;28;20033;-77
2021/10/30 01:22:10;;;;;;;9.57;6.85;;;12.00;99.90;;;;;;5033225;28;20022;-77
2021/10/30 01:24:36;;;;;;;9.50;6.82;;;12.00;99.90;;;;;;5032729;28;20553;-77
2021/10/30 01:27:02;;;;;;;6.95;6.35;;;12.10;99.90;;;;;;5033232;28;20030;-76
2021/10/30 01:29:30;;;;;;;8.40;6.68;;;12.10;99.90;;;;;;5032618;28;20551;-76
2021/10/30 01:31:55;;;;;;;7.80;7.10;;;12.10;99.90;;;;;;5032106;28;20109;-75
2021/10/30 01:34:26;;;;;;;8.75;5.75;;;12.10;99.90;;;;;;5032639;28;20061;-75
2021/10/30 01:36:51;;;;;;;;;;;12.10;99.90;;;;;;5033410;28;20061;-75
2021/10/30 01:39:17;;;;;;;7.35;6.65;;;12.10;99.90;;;;;;5032034;28;19912;-78
2021/10/30 01:41:44;;;;;;;8.85;6.72;;;12.00;99.90;;;;;;5032638;28;20017;-77
2021/10/30 01:44:10;;;;;;;6.97;6.28;;;12.00;99.90;;;;;;5018659;28;20029;-76
2021/10/30 01:46:35;;;;;;;8.55;6.97;;;12.00;99.90;;;;;;5022286;28;20036;-77
2021/10/30 01:49:01;;;;;;;7.53;6.82;;;12.00;99.90;;;;;;5027719;28;20021;-75
2021/10/30 01:51:27;;;;;;;8.13;7.43;;;12.00;99.90;;;;;;5020399;28;20021;-77
2021/10/30 01:53:52;;;;;;;10.85;6.82;;;12.00;99.90;;;;;;5031571;28;20109;-75
2021/10/30 01:56:18;;;;;;;7.43;6.72;;;12.00;99.90;;;;;;5032280;28;20116;-77
2021/10/30 01:58:44;;;;;;;7.28;6.68;;;12.00;99.90;;;;;;5032003;28;20109;-77
2021/10/30 02:01:11;;;;;;;7.82;6.97;;;12.00;99.90;;;;;;5031518;28;20030;-77
2021/10/30 02:03:36;;;;;;;9.05;6.85;;;12.00;99.90;;;;;;5031777;28;20018;-76
2021/10/30 02:06:06;;;;;;;8.40;7.55;;;11.90;99.90;;;;;;5031966;28;20147;-77
2021/10/30 02:08:32;;;;;;;7.95;7.25;;;12.30;99.90;;;;;;5031437;28;20378;-76
2021/10/30 02:10:59;;;;;;;8.32;7.63;;;11.90;99.90;;;;;;5032149;28;20033;-76
2021/10/30 02:13:25;;;;;;;11.45;6.80;;;11.80;99.90;;;;;;5031980;28;20584;-77
2021/10/30 02:15:51;;;;;;;9.93;8.40;;;11.70;99.90;;;;;;5030910;28;20040;-76
2021/10/30 02:18:17;;;;;;;11.10;7.78;;;11.70;99.90;;;;;;5032567;28;20104;-75
2021/10/30 02:20:43;;;;;;;9.00;8.18;;;11.50;99.90;;;;;;5031118;28;20026;-75
2021/10/30 02:23:09;;;;;;;8.68;7.88;;;11.50;99.90;;;;;;5032861;28;20440;-77
2021/10/30 02:25:34;;;;;;;8.75;7.85;;;11.40;99.90;;;;;;5032203;28;20113;-77
2021/10/30 02:28:00;;;;;;;9.13;8.25;;;11.30;99.90;;;;;;5033467;28;20448;-76
2021/10/30 02:30:26;;;;;;;8.48;7.68;;;11.30;99.90;;;;;;5036321;28;20033;-76
2021/10/30 02:32:52;;;;;;;10.32;9.20;;;11.30;99.90;;;;;;5035728;28;20385;-77
2021/10/30 02:35:19;;;;;;;8.98;8.05;;;11.30;99.90;;;;;;5034521;28;20052;-76
2021/10/30 02:37:45;;;;;;;10.10;9.13;;;11.30;99.90;;;;;;5035622;28;20045;-77
2021/10/30 02:40:14;;;;;;;8.82;7.93;;;11.30;99.90;;;;;;5036082;28;20116;-76
2021/10/30 02:42:40;;;;;;;9.30;8.45;;;11.30;99.90;;;;;;5029282;28;20032;-77
2021/10/30 02:45:07;;;;;;;9.48;8.52;;;11.30;99.90;;;;;;5027153;28;20037;-76
2021/10/30 02:47:33;;;;;;;9.90;8.93;;;11.30;99.90;;;;;;5035765;28;20022;-75
2021/10/30 02:49:59;;;;;;;10.57;8.45;;;11.30;99.90;;;;;;5035048;28;20032;-77
2021/10/30 02:52:25;;;;;;;9.63;8.73;;;11.40;99.90;;;;;;5035160;28;20048;-76
2021/10/30 02:54:51;;;;;;;9.40;8.57;;;11.40;99.90;;;;;;5035386;28;20040;-76
2021/10/30 02:57:17;;;;;;;8.95;8.05;;;11.30;99.90;;;;;;5034620;28;20405;-75
2021/10/30 02:59:42;;;;;;;10.45;9.35;;;11.30;99.90;;;;;;5035049;28;20132;-75
2021/10/30 03:02:08;;;;;;;9.30;8.43;;;11.40;99.90;;;;;;5035705;28;20032;-77
2021/10/30 03:04:34;;;;;;;11.75;9.50;;;11.30;99.90;;;;;;5034264;28;20032;-74
2021/10/30 03:06:59;;;;;;;9.07;7.97;;;11.30;99.90;;;;;;5034937;28;20029;-75
2021/10/30 03:09:25;;;;;;;8.18;7.50;;;11.40;99.90;;;;;;5034906;28;20152;-76
2021/10/30 03:11:50;;;;;;;10.35;8.25;;;11.30;99.90;;;;;;5034338;28;20021;-76
2021/10/30 03:14:16;;;;;;;14.20;8.23;;;11.30;99.90;;;;;;5035058;28;20095;-76
2021/10/30 03:16:43;;;;;;;8.98;8.18;;;11.30;99.90;;;;;;5034782;28;20040;-76
2021/10/30 03:19:08;;;;;;;9.90;8.85;;;11.30;99.90;;;;;;5034732;28;20026;-76
2021/10/30 03:21:34;;;;;;;10.52;8.60;;;11.30;99.90;;;;;;5020592;28;20026;-77
2021/10/30 03:23:59;;;;;;;8.05;7.35;;;11.30;99.90;;;;;;5034695;28;20032;-77
2021/10/30 03:26:25;;;;;;;9.07;8.20;;;11.30;99.90;;;;;;5034995;28;20390;-77
2021/10/30 03:28:51;;;;;;;9.02;8.02;;;11.30;99.90;;;;;;5029649;28;20377;-77
2021/10/30 03:31:17;;;;;;;10.15;8.15;;;11.30;99.90;;;;;;5027434;28;20403;-74
2021/10/30 03:33:43;;;;;;;7.93;7.10;;;11.40;99.90;;;;;;5034766;28;20485;-77
2021/10/30 03:36:08;;;;;;;8.13;7.32;;;11.40;99.90;;;;;;5035095;28;20531;-76
2021/10/30 03:38:34;;;;;;;8.68;7.70;;;11.40;99.90;;;;;;5033602;28;20388;-77
2021/10/30 03:41:00;;;;;;;9.05;7.60;;;11.40;99.90;;;;;;5034436;28;20025;-76
2021/10/30 03:43:25;;;;;;;8.82;8.02;;;12.10;99.90;;;;;;5034515;28;20412;-76
2021/10/30 03:45:51;;;;;;;8.05;7.43;;;11.40;99.90;;;;;;5020883;28;20033;-76
2021/10/30 03:48:18;;;;;;;8.65;7.82;;;11.40;99.90;;;;;;5034897;28;20028;-75
2021/10/30 03:50:45;;;;;;;8.70;7.90;;;11.40;99.90;;;;;;5034865;28;20071;-76
2021/10/30 03:53:10;;;;;;;8.95;8.02;;;11.50;99.90;;;;;;5033912;28;20029;-75
2021/10/30 03:55:36;;;;;;;9.50;8.50;;;11.50;99.90;;;;;;5033987;28;20033;-76
2021/10/30 03:58:02;;;;;;;8.63;7.68;;;11.50;99.90;;;;;;5034534;28;20129;-76
2021/10/30 04:00:28;;;;;;;9.80;7.63;;;11.50;99.90;;;;;;5033304;28;20488;-75
2021/10/30 04:02:54;;;;;;;8.48;7.75;;;11.50;99.90;;;;;;5034325;28;20065;-74
2021/10/30 04:05:20;;;;;;;10.02;8.15;;;11.50;99.90;;;;;;5034234;28;20489;-75
2021/10/30 04:07:46;;;;;;;10.23;7.68;;;11.60;99.90;;;;;;5033709;28;20040;-76
2021/10/30 04:10:11;;;;;;;8.30;7.50;;;11.60;99.90;;;;;;5034855;28;20033;-77
2021/10/30 04:12:37;;;;;;;10.38;7.75;;;11.70;99.90;;;;;;5018201;28;20026;-77
2021/10/30 04:15:04;;;;;;;9.13;8.20;;;11.70;99.90;;;;;;5022748;28;20033;-76
2021/10/30 04:17:29;;;;;;;11.27;7.90;;;11.70;99.90;;;;;;5033490;28;20156;-76
2021/10/30 04:19:58;;;;;;;8.85;7.95;;;11.80;99.90;;;;;;5034734;28;20088;-77
2021/10/30 04:22:23;;;;;;;11.52;7.70;;;11.80;99.90;;;;;;5033824;28;20033;-77
2021/10/30 04:24:49;;;;;;;9.15;8.20;;;11.80;99.90;;;;;;5033741;28;20033;-77
2021/10/30 04:27:14;;;;;;;8.45;7.63;;;11.90;99.90;;;;;;5034288;28;20558;-76
2021/10/30 04:29:40;;;;;;;8.38;7.57;;;11.90;99.90;;;;;;5033665;28;20033;-76
2021/10/30 04:32:07;;;;;;;8.93;7.65;;;11.90;99.90;;;;;;5019946;28;20366;-77
2021/10/30 04:34:45;;;;;;;10.13;7.40;;;11.90;99.90;;;;;;5021659;28;20065;-76
2021/10/30 04:37:17;;;;;;;12.10;7.20;;;11.90;99.90;;;;;;5033532;28;20032;-77
2021/10/30 04:39:53;;;;;;;8.70;6.82;;;11.90;99.90;;;;;;5033229;28;20108;-77
2021/10/30 04:42:19;;;;;;;10.20;7.75;;;12.00;99.90;;;;;;5034316;28;20025;-77
2021/10/30 04:44:46;;;;;;;10.85;8.05;;;12.00;99.90;;;;;;5022038;28;20033;-77
2021/10/30 04:47:14;;;;;;;9.43;7.43;;;11.90;99.90;;;;;;5031004;28;20132;-77
2021/10/30 04:49:40;;;;;;;10.38;8.02;;;12.00;99.90;;;;;;5031722;28;20052;-76
2021/10/30 04:52:07;;;;;;;14.25;8.75;;;12.00;99.90;;;;;;5033813;28;20068;-76
2021/10/30 04:54:33;;;;;;;13.55;7.95;;;12.00;99.90;;;;;;5025944;28;20052;-77
2021/10/30 04:56:59;;;;;;;8.90;8.00;;;12.00;99.90;;;;;;5027102;28;20474;-77
2021/10/30 04:59:24;;;;;;;11.30;8.48;;;12.00;99.90;;;;;;5033777;28;20033;-77
2021/10/30 05:01:50;;;;;;;9.35;8.23;;;12.00;99.90;;;;;;5033287;28;20052;-77
2021/10/30 05:04:16;;;;;;;8.23;7.40;;;12.00;99.90;;;;;;5032499;28;20166;-76
2021/10/30 05:06:41;;;;;;;8.57;7.75;;;12.00;99.90;;;;;;5033460;28;20381;-77
2021/10/30 05:09:07;;;;;;;9.55;8.65;;;12.00;99.90;;;;;;5019095;28;20624;-77
2021/10/30 05:11:33;;;;;;;8.98;7.97;;;12.00;99.90;;;;;;5031626;28;20028;-76
2021/10/30 05:13:58;;;;;;;9.23;8.43;;;12.00;99.90;;;;;;5032924;28;20030;-77
2021/10/30 05:16:24;;;;;;;12.40;8.18;;;12.00;99.90;;;;;;5032505;28;20095;-79
2021/10/30 05:18:49;;;;;;;12.30;8.00;;;12.00;99.90;;;;;;5033301;28;20036;-78
2021/10/30 05:21:15;;;;;;;9.57;8.63;;;12.10;99.90;;;;;;5033508;28;20484;-78
2021/10/30 05:23:41;;;;;;;8.68;7.90;;;12.10;99.90;;;;;;5032262;28;20489;-79
2021/10/30 05:26:07;;;;;;;11.48;8.23;;;12.10;99.90;;;;;;5033337;28;20026;-78
2021/10/30 05:28:33;;;;;;;15.77;8.93;;;12.10;99.90;;;;;;5033372;28;20020;-78
2021/10/30 05:30:59;;;;;;;9.52;8.18;;;12.10;99.90;;;;;;5032551;28;20396;-79
2021/10/30 05:33:25;;;;;;;10.75;8.50;;;12.10;99.90;;;;;;5034687;28;20406;-79
2021/10/30 05:35:50;;;;;;;8.88;7.97;;;12.10;99.90;;;;;;5035060;28;20038;-79
2021/10/30 05:38:17;;;;;;;15.70;8.43;;;12.10;99.90;;;;;;5032572;28;20028;-78
2021/10/30 05:40:44;;;;;;;9.77;8.35;;;12.20;99.90;;;;;;5034045;28;20017;-79
2021/10/30 05:43:11;;;;;;;9.75;8.40;;;12.10;99.90;;;;;;5034790;28;20029;-80
2021/10/30 05:45:40;;;;;;;8.38;7.57;;;12.10;99.90;;;;;;5033037;28;20389;-80
2021/10/30 05:48:08;;;;;;;9.10;8.00;;;12.10;99.90;;;;;;5032866;28;20052;-79
2021/10/30 05:50:34;;;;;;;10.38;8.02;;;12.10;99.90;;;;;;5033106;28;20477;-79
2021/10/30 05:53:00;;;;;;;11.32;8.40;;;12.10;99.90;;;;;;5023512;28;20030;-80
2021/10/30 05:55:26;;;;;;;8.88;7.93;;;12.10;99.90;;;;;;5028647;28;20508;-80
2021/10/30 05:57:52;;;;;;;8.55;7.70;;;12.10;99.90;;;;;;5033412;28;20068;-80
2021/10/30 06:00:17;;;;;;;14.40;8.45;;;12.10;99.90;;;;;;5032912;28;20119;-79
2021/10/30 06:02:46;;;;;;;10.98;8.50;;;12.10;99.90;;;;;;5031390;28;20067;-80
2021/10/30 06:05:11;;;;;;;9.48;8.38;;;12.20;99.90;;;;;;5033002;28;20053;-79
2021/10/30 06:07:38;;;;;;;11.20;7.35;;;12.10;99.90;;;;;;5031973;28;20053;-78
2021/10/30 06:10:05;;;;;;;8.65;7.82;;;12.20;99.90;;;;;;5033359;28;20030;-79
2021/10/30 06:12:31;;;;;;;9.18;8.23;;;12.10;99.90;;;;;;5018767;28;20458;-80
2021/10/30 06:14:56;;;;;;;13.45;8.85;;;12.20;99.90;;;;;;5032522;28;20056;-80
2021/10/30 06:17:25;;;;;;;17.08;8.02;;;12.20;99.90;;;;;;5033078;28;20018;-78
2021/10/30 06:19:50;;;;;;;10.43;7.88;;;12.10;99.90;;;;;;5018619;28;20014;-79
2021/10/30 06:22:16;;;;;;;9.38;8.32;;;12.10;99.90;;;;;;5032835;28;20393;-79
2021/10/30 06:24:41;;;;;;;8.13;7.43;;;12.10;99.90;;;;;;5027803;28;20029;-79
2021/10/30 06:27:08;;;;;;;10.55;8.07;;;12.20;99.90;;;;;;5032765;28;20512;-80
2021/10/30 06:29:34;;;;;;;8.90;8.00;;;12.20;99.90;;;;;;5032495;28;20052;-79
2021/10/30 06:31:59;;;;;;;9.40;8.32;;;12.10;99.90;;;;;;5032866;28;20021;-79
2021/10/30 06:34:25;;;;;;;10.05;7.93;;;12.20;99.90;;;;;;5033352;28;20052;-79
2021/10/30 06:36:51;;;;;;;8.38;7.57;;;12.10;99.90;;;;;;5032054;28;20034;-79
2021/10/30 06:39:16;;;;;;;14.77;8.00;;;12.20;99.90;;;;;;5030507;28;20076;-80
2021/10/30 06:41:42;;;;;;;9.07;7.55;;;12.20;99.90;;;;;;5030855;28;20041;-80
2021/10/30 06:44:08;;;;;;;9.13;8.20;;;12.20;99.90;;;;;;5031254;28;20025;-80
2021/10/30 06:46:33;;;;;;;8.38;7.57;;;12.20;99.90;;;;;;5032009;28;20029;-80
2021/10/30 06:48:59;;;;;;;11.77;7.53;;;12.20;99.90;;;;;;5031464;28;20021;-80
2021/10/30 06:51:25;;;;;;;11.35;8.07;;;12.20;99.90;;;;;;5031709;28;20090;-80
2021/10/30 06:53:51;;;;;;;11.13;8.10;;;12.20;99.90;;;;;;5031068;28;20025;-81
2021/10/30 06:56:17;;;;;;;8.80;7.90;;;12.20;99.90;;;;;;5030259;28;20041;-80
2021/10/30 06:58:43;;;;;;;8.52;7.45;;;12.20;99.90;;;;;;5031766;28;20025;-81
2021/10/30 07:01:09;;;;;;;9.80;7.68;;;12.30;99.90;;;;;;5031812;28;20032;-81
2021/10/30 07:03:36;;;;;;;8.80;7.78;;;12.30;99.90;;;;;;5031588;28;20068;-80
2021/10/30 07:06:02;;;;;;;10.93;7.93;;;12.20;99.90;;;;;;5032053;28;20113;-81
2021/10/30 07:08:27;;;;;;;9.35;7.57;;;12.20;99.90;;;;;;5032045;28;20497;-81
2021/10/30 07:10:53;;;;;;;12.02;8.20;;;12.30;99.90;;;;;;5030970;28;20508;-82
2021/10/30 07:13:18;;;;;;;9.32;7.95;;;12.20;99.90;;;;;;5032743;28;20108;-82
2021/10/30 07:15:44;;;;;;;10.73;8.05;;;12.20;99.90;;;;;;5034755;28;20025;-83
2021/10/30 07:18:10;;;;;;;10.00;7.80;;;12.30;99.90;;;;;;5034886;28;20108;-84
2021/10/30 07:20:36;;;;;;;11.88;7.45;;;12.30;99.90;;;;;;5035879;28;20056;-82
2021/10/30 07:23:02;;;;;;;9.98;8.77;;;12.30;99.90;;;;;;5035834;28;20022;-84
2021/10/30 07:25:27;;;;;;;9.68;8.05;;;12.20;99.90;;;;;;5035112;28;20017;-84
2021/10/30 07:27:53;;;;;;;8.27;7.50;;;12.20;99.90;;;;;;5030562;28;20037;-83
2021/10/30 07:30:19;;;;;;;9.32;6.97;;;12.20;99.90;;;;;;5035065;28;20136;-83
2021/10/30 07:32:51;;;;;;;8.63;7.72;;;11.90;99.90;;;;;;5035842;28;20075;-84
2021/10/30 07:35:16;;;;;;;8.85;7.97;;;12.20;99.90;;;;;;5036289;28;20060;-85
2021/10/30 07:37:42;;;;;;;11.05;7.90;;;12.20;99.90;;;;;;5034560;28;20018;-84
2021/10/30 07:40:08;;;;;;;10.27;7.95;;;12.20;99.90;;;;;;5034680;28;20143;-85
2021/10/30 07:42:33;;;;;;;8.52;7.30;;;12.20;99.90;;;;;;5032337;28;20025;-86
2021/10/30 07:45:01;;;;;;;9.18;6.70;;;12.20;99.90;;;;;;5041390;28;20014;-83
2021/10/30 07:47:26;;;;;;;9.88;8.02;;;12.20;99.90;;;;;;5041213;28;20025;-82
2021/10/30 07:49:52;;;;;;;8.93;8.13;;;12.20;99.90;;;;;;5035603;28;20083;-82
2021/10/30 07:52:17;;;;;;;10.68;7.07;;;12.20;99.90;;;;;;5035811;28;20124;-83
2021/10/30 07:54:43;;;;;;;7.63;6.85;;;12.30;99.90;;;;;;5035441;28;20040;-82
2021/10/30 07:57:10;;;;;;;9.90;7.13;;;12.30;99.90;;;;;;5035732;28;20500;-82
2021/10/30 07:59:37;;;;;;;9.45;8.45;;;12.30;99.90;;;;;;5033602;28;20034;-82
2021/10/30 08:02:03;;;;;;;7.82;7.13;;;12.40;99.90;;;;;;5037440;28;20407;-87
2021/10/30 08:04:30;;;;;;;10.30;7.22;;;12.40;99.90;;;;;;5036281;28;20021;-82
2021/10/30 08:06:57;;;;;;;8.52;6.63;;;12.30;99.90;;;;;;5037441;28;20091;-85
2021/10/30 08:09:22;;;;;;;10.27;7.43;;;12.40;99.90;;;;;;5034799;28;20071;-81
2021/10/30 08:11:48;;;;;;;7.57;6.90;;;12.40;99.90;;;;;;5035138;28;20029;-81
2021/10/30 08:14:13;;;;;;;9.45;7.60;;;12.30;99.90;;;;;;5036326;28;20122;-82
2021/10/30 08:16:39;;;;;;;8.32;7.15;;;12.40;99.90;;;;;;5035125;28;20041;-82
2021/10/30 08:19:05;;;;;;;7.75;6.95;;;12.50;99.90;;;;;;5035902;28;20018;-81
2021/10/30 08:21:31;;;;;;;11.35;7.20;;;12.50;99.90;;;;;;5035927;28;20048;-84
2021/10/30 08:23:57;;;;;;;6.97;6.28;;;12.50;99.90;;;;;;5035674;28;20478;-81
2021/10/30 08:26:24;;;;;;;6.88;6.28;;;12.60;99.90;;;;;;5033541;28;20033;-76
2021/10/30 08:28:50;;;;;;;7.22;6.28;;;12.60;99.90;;;;;;5036212;28;20409;-82
2021/10/30 08:31:19;;;;;;;8.27;6.28;;;12.60;99.90;;;;;;5031640;28;20053;-83
2021/10/30 08:33:44;;;;;;;9.45;7.10;;;12.70;99.90;;;;;;5025049;28;20049;-81
2021/10/30 08:36:10;;;;;;;6.70;5.97;;;12.70;99.90;;;;;;5027617;28;20029;-81
2021/10/30 08:38:36;;;;;;;7.47;6.63;;;12.60;99.90;;;;;;5026032;28;20037;-81
2021/10/30 08:41:04;;;;;;;6.10;5.38;;;12.60;99.90;;;;;;5027722;28;20104;-83
2021/10/30 08:43:30;;;;;;;5.55;5.05;;;12.70;99.90;;;;;;5028876;28;20037;-83
2021/10/30 08:45:58;;;;;;;6.57;5.50;;;12.80;99.90;;;;;;5021830;28;20116;-84
2021/10/30 08:48:26;;;;;;;7.47;5.72;;;12.80;99.90;;;;;;5027261;28;20021;-82
2021/10/30 08:50:53;;;;;;;6.60;6.00;;;12.80;99.90;;;;;;5028116;28;20068;-82
2021/10/30 08:53:20;;;;;;;6.63;5.53;;;12.80;99.90;;;;;;5030940;28;20104;-82
2021/10/30 08:55:47;;;;;;;6.45;5.43;;;12.80;99.90;;;;;;5023168;28;20048;-82
2021/10/30 08:58:14;;;;;;;6.43;5.90;;;12.80;99.90;;;;;;5025670;28;20029;-82
2021/10/30 09:00:42;;;;;;;6.10;5.50;;;12.80;99.90;;;;;;5022639;28;20078;-83
2021/10/30 09:03:10;;;;;;;8.20;5.72;;;12.80;99.90;;;;;;5028823;28;20037;-82
2021/10/30 09:05:36;;;;;;;8.90;6.07;;;12.80;99.90;;;;;;5031921;28;20060;-79
2021/10/30 09:08:05;;;;;;;5.88;5.38;;;12.80;99.90;;;;;;5032425;28;20026;-71
2021/10/30 09:10:35;;;;;;;9.00;5.97;;;12.80;99.90;;;;;;5026962;28;20382;-80
2021/10/30 09:13:04;;;;;;;6.75;5.82;;;12.90;99.90;;;;;;5024780;28;20084;-81
2021/10/30 09:15:31;;;;;;;8.60;6.47;;;12.90;99.90;;;;;;5033825;28;20033;-80
2021/10/30 09:17:57;;;;;;;8.07;5.55;;;12.90;99.90;;;;;;5033861;28;20052;-80
2021/10/30 09:20:39;;;;;;;5.68;5.05;;;12.80;99.90;;;;;;5031372;28;20108;-80
2021/10/30 09:23:08;;;;;;;7.47;5.72;;;12.80;99.90;;;;;;5022469;28;20500;-80
2021/10/30 09:25:34;;;;;;;7.60;5.95;;;12.80;99.90;;;;;;5033101;28;20025;-80
2021/10/30 09:28:01;;;;;;;6.05;5.28;;;12.80;99.90;;;;;;5033284;28;20022;-80
2021/10/30 09:30:30;;;;;;;6.10;5.07;;;12.80;99.90;;;;;;5033004;28;20033;-80
2021/10/30 09:33:01;;;;;;;9.80;5.35;;;12.80;99.90;;;;;;5033715;28;20033;-80
2021/10/30 09:35:36;;;;;;;5.30;4.80;;;12.80;99.90;;;;;;5033694;28;20070;-82
2021/10/30 09:38:01;;;;;;;6.10;4.93;;;12.80;99.90;;;;;;5023925;28;20033;-80
2021/10/30 09:40:30;;;;;;;12.25;5.90;;;13.60;99.90;;;;;;5034890;28;20485;-82
2021/10/30 09:43:13;;;;;;;6.35;5.55;;;12.70;99.90;;;;;;5036354;28;20017;-81
2021/10/30 09:45:48;;;;;;;8.18;5.47;;;12.80;99.90;;;;;;5034613;28;20500;-82
2021/10/30 09:48:22;;;;;;;9.65;6.90;;;12.80;99.90;;;;;;5034509;28;20388;-81
2021/10/30 09:50:50;;;;;;;6.88;5.30;;;12.80;99.90;;;;;;5037427;28;20025;-81
2021/10/30 09:53:32;;;;;;;5.55;4.90;;;12.80;99.90;;;;;;5037146;28;20036;-81
2021/10/30 09:56:11;;;;;;;6.80;4.70;;;12.80;99.90;;;;;;5044629;28;20049;-81
2021/10/30 09:58:45;;;;;;;7.07;6.20;;;12.80;99.90;;;;;;5029891;28;20030;-81
2021/10/30 10:01:16;;;;;;;6.53;5.68;;;12.90;99.90;;;;;;5033378;28;20113;-81
2021/10/30 10:03:50;;;;;;;5.60;5.00;;;12.90;99.90;;;;;;5026443;28;20041;-80
2021/10/30 10:06:18;;;;;;;4.90;4.43;;;12.90;99.90;;;;;;5027310;28;20449;-81
2021/10/30 10:08:48;;;;;;;10.27;5.20;;;12.90;99.90;;;;;;5021983;28;20048;-81
2021/10/30 10:11:16;;;;;;;5.15;4.60;;;12.90;99.90;;;;;;5031263;28;20041;-80
2021/10/30 10:13:47;;;;;;;7.20;5.00;;;13.00;99.90;;;;;;5034256;28;20081;-82
2021/10/30 10:16:19;;;;;;;7.70;5.05;;;13.00;99.90;;;;;;5043525;28;20089;-82
2021/10/30 10:18:46;;;;;;;6.10;5.45;;;13.10;99.90;;;;;;5037042;28;20025;-81
2021/10/30 10:21:15;;;;;;;6.22;4.95;;;13.10;99.90;;;;;;5034335;28;20022;-82
2021/10/30 10:23:42;;;;;;;6.43;4.88;;;13.10;99.90;;;;;;5032032;28;20489;-74
2021/10/30 10:26:08;;;;;;;5.30;4.80;;;13.10;99.90;;;;;;5031016;28;20029;-80
2021/10/30 10:28:36;;;;;;;6.00;4.70;;;13.20;99.90;;;;;;5030347;28;20029;-78
2021/10/30 10:31:10;;;;;;;5.18;4.70;;;13.20;99.90;;;;;;5028459;28;20335;-79
2021/10/30 10:33:40;;;;;;;4.72;4.32;;;13.20;99.90;;;;;;5027124;28;20108;-79
2021/10/30 10:36:26;;;;;;;5.40;4.47;;;13.30;99.90;;;;;;5029696;28;20033;-79
2021/10/30 10:39:01;;;;;;;4.45;4.03;;;13.30;99.90;;;;;;5029575;28;20037;-80
2021/10/30 10:41:44;;;;;;;6.70;4.43;;;13.40;99.90;;;;;;5030362;28;20026;-79
2021/10/30 10:44:13;;;;;;;5.53;4.93;;;13.40;99.90;;;;;;5023744;28;20026;-81
2021/10/30 10:46:49;;;;;;;6.00;4.60;;;13.40;99.90;;;;;;5031997;28;20197;-77
2021/10/30 10:49:32;;;;;;;5.30;4.60;;;13.40;99.90;;;;;;5034586;28;20028;-80
2021/10/30 10:52:04;;;;;;;4.63;4.28;;;13.50;99.90;;;;;;5035725;28;20029;-80
2021/10/30 10:54:54;;;;;;;4.95;4.63;;;13.50;99.90;;;;;;5036670;28;20025;-81
2021/10/30 10:57:27;;;;;;;6.00;4.45;;;13.60;99.90;;;;;;5034885;28;20035;-81
2021/10/30 11:00:07;;;;;;;4.40;4.00;;;13.70;99.90;;;;;;5034851;28;20059;-82
2021/10/30 11:02:36;;;;;;;8.70;4.88;;;13.70;99.90;;;;;;5034753;28;20033;-81
2021/10/30 11:05:07;;;;;;;5.20;4.70;;;13.70;99.90;;;;;;5036164;28;20079;-81
2021/10/30 11:07:40;;;;;;;4.78;4.20;;;13.80;99.90;;;;;;5027922;28;20025;-81
2021/10/30 11:10:15;;;;;;;5.60;4.75;;;13.90;99.90;;;;;;5034351;28;20095;-82
2021/10/30 11:13:02;;;;;;;5.05;4.55;;;14.00;99.90;;;;;;5035600;28;20318;-80
2021/10/30 11:15:54;;;;;;;3.85;3.55;;;14.00;99.90;;;;;;5030893;28;20124;-80
2021/10/30 11:18:28;;;;;;;7.22;4.88;;;14.00;99.90;;;;;;5034472;28;20109;-80
2021/10/30 11:21:24;;;;;;;4.75;4.35;;;14.20;99.90;;;;;;5032107;28;20469;-80
2021/10/30 11:23:54;;;;;;;5.15;4.47;;;14.10;99.90;;;;;;5035857;28;20009;-80
2021/10/30 11:26:27;;;;;;;4.97;4.18;;;14.20;99.90;;;;;;5035478;28;20449;-81
2021/10/30 11:28:53;;;;;;;5.18;3.55;;;14.20;99.90;;;;;;5034344;28;20039;-80
2021/10/30 11:31:21;;;;;;;4.55;4.15;;;14.20;99.90;;;;;;5034493;28;20432;-80
2021/10/30 11:34:05;;;;;;;4.15;3.65;;;14.20;99.90;;;;;;5034939;28;20470;-79
2021/10/30 11:36:32;;;;;;;4.45;4.05;;;14.20;99.90;;;;;;5034174;28;20029;-80
2021/10/30 11:38:59;;;;;;;4.45;4.05;;;14.10;99.90;;;;;;5036691;28;20033;-80
2021/10/30 11:41:34;;;;;;;4.35;3.90;;;14.20;99.90;;;;;;5036564;28;20025;-80
2021/10/30 11:44:03;;;;;;;4.05;3.67;;;14.10;99.90;;;;;;5035722;28;20013;-81
2021/10/30 11:46:40;;;;;;;3.88;3.50;;;14.10;99.90;;;;;;5036381;28;20021;-80
2021/10/30 11:49:07;;;;;;;3.88;3.53;;;14.10;99.90;;;;;;5036707;28;20482;-79
2021/10/30 11:51:35;;;;;;;3.95;3.45;;;14.20;99.90;;;;;;5034719;28;20025;-80
2021/10/30 11:54:06;;;;;;;4.43;3.70;;;14.10;99.90;;;;;;5035218;28;20025;-80
2021/10/30 11:56:32;;;;;;;4.18;3.72;;;14.10;99.90;;;;;;5035143;28;20036;-81
2021/10/30 11:59:01;;;;;;;5.32;3.50;;;14.10;99.90;;;;;;5035025;28;20030;-81
2021/10/30 12:01:40;;;;;;;4.60;4.20;;;14.00;99.90;;;;;;5036038;28;20038;-84
2021/10/30 12:04:09;;;;;;;4.68;3.78;;;14.10;99.90;;;;;;5039011;28;20025;-82
2021/10/30 12:06:40;;;;;;;4.18;3.40;;;14.10;99.90;;;;;;5034660;28;20025;-81
2021/10/30 12:09:33;;;;;;;4.13;3.75;;;14.10;99.90;;;;;;5031130;28;20028;-80
2021/10/30 12:12:05;;;;;;;4.10;3.55;;;14.10;99.90;;;;;;5034941;28;20049;-81
2021/10/30 12:14:34;;;;;;;4.00;3.70;;;14.10;99.90;;;;;;5034829;28;20021;-81
2021/10/30 12:17:06;;;;;;;4.63;3.13;;;14.10;99.90;;;;;;5036780;28;20072;-79
2021/10/30 12:19:34;;;;;;;3.47;3.17;;;14.20;99.90;;;;;;5034136;28;20053;-81
2021/10/30 12:22:03;;;;;;;3.35;3.15;;;14.20;99.90;;;;;;5034481;28;20028;-82
2021/10/30 12:24:33;;;;;;;3.33;3.13;;;14.20;99.90;;;;;;5032275;28;20040;-81
2021/10/30 12:27:19;;;;;;;2.97;2.78;;;14.20;99.90;;;;;;5034467;28;20446;-79
2021/10/30 12:29:46;;;;;;;3.45;3.13;;;14.20;99.90;;;;;;5031575;28;20071;-81
2021/10/30 12:32:14;;;;;;;3.35;3.03;;;14.20;99.90;;;;;;5034244;28;20018;-80
2021/10/30 12:34:41;;;;;;;3.53;2.85;;;14.20;99.90;;;;;;5032017;28;20271;-77
2021/10/30 12:37:09;;;;;;;2.78;2.58;;;14.10;99.90;;;;;;5033529;28;20551;-81
2021/10/30 12:39:35;;;;;;;3.10;2.90;;;14.10;99.90;;;;;;5036295;28;20097;-81
2021/10/30 12:42:06;;;;;;;3.22;2.95;;;14.10;99.90;;;;;;5036416;28;20037;-80
2021/10/30 12:44:36;;;;;;;2.83;2.53;;;14.20;99.90;;;;;;5039351;28;20032;-80
2021/10/30 12:47:11;;;;;;;5.07;2.78;;;14.20;99.90;;;;;;5043425;28;20085;-80
2021/10/30 12:49:36;;;;;;;3.33;3.03;;;14.20;99.90;;;;;;5036957;28;20066;-79